EGQL

RAF Leuchars Airport

St. Andrews, United Kingdom
METAR EGQL 191550Z 33003KT 8000 HZ OVC020 03/01 Q1009 WHT
Observed Flight Rules
Jan-19 @ 15:50 UTC (49 minutes ago) Marginal Visual Flight Rules
Wind Visibility Clouds Conditions
330° at 3 knots 7,998 meters
  • Overcast at 2,000' AGL
  • Haze
Temperatures Readings
Current 3°C / 37°F
Dewpoint 1°C / 34°F
Humidity 87%
Altimeter 29.79" Hg
Pressure 1008.92 hPa
Elevation 12
METAR EGQL 191550Z 33003KT 8000 HZ OVC020 03/01 Q1009 WHT
Observed Flight Rules
Jan-19 @ 15:50 UTC
(49 minutes ago)
MVFR
Wind Visibility
330° at 3 knots 7,998 meters
Clouds
  • Overcast at 2,000' AGL
Conditions
  • Haze
Temperature Dewpoint
3°C / 37°F 1°C / 34°F
Humidity Altimeter Pressure
87% 29.79" Hg 1008.92 hPa